createdAt,value
2019-02-21T00:00:48.004Z,67.63
2019-02-21T00:03:16.233Z,67.70
2019-02-21T00:05:45.324Z,67.91
2019-02-21T00:08:14.455Z,67.85
2019-02-21T00:10:43.607Z,67.73
2019-02-21T00:13:13.240Z,67.83
2019-02-21T00:15:42.431Z,67.75
2019-02-21T00:18:11.589Z,67.92
2019-02-21T00:20:40.762Z,67.97
2019-02-21T00:23:09.885Z,67.90
2019-02-21T00:25:39.043Z,67.96
2019-02-21T00:28:08.241Z,68.25
2019-02-21T00:30:37.395Z,68.14
2019-02-21T00:33:06.545Z,68.21
2019-02-21T00:35:35.766Z,68.34
2019-02-21T00:38:04.853Z,68.25
2019-02-21T00:40:34.122Z,68.33
2019-02-21T00:43:03.330Z,68.42
2019-02-21T00:45:32.500Z,68.26
2019-02-21T00:48:01.634Z,68.28
2019-02-21T00:50:30.775Z,68.31
2019-02-21T00:52:59.920Z,68.36
2019-02-21T00:55:29.061Z,68.41
2019-02-21T00:57:58.708Z,68.44
2019-02-21T01:00:27.893Z,68.39
2019-02-21T01:02:57.088Z,68.29
2019-02-21T01:05:26.252Z,68.24
2019-02-21T01:07:55.404Z,68.14
2019-02-21T01:10:24.565Z,68.25
2019-02-21T01:12:53.724Z,68.35
2019-02-21T01:15:22.878Z,68.26
2019-02-21T01:17:52.027Z,68.16
2019-02-21T01:20:22.408Z,68.19
2019-02-21T01:22:51.481Z,68.59
2019-02-21T01:25:20.617Z,68.37
2019-02-21T01:27:49.763Z,68.39
2019-02-21T01:30:18.912Z,68.20
2019-02-21T01:32:48.041Z,68.33
2019-02-21T01:35:17.177Z,68.34
2019-02-21T01:37:46.327Z,68.52
2019-02-21T01:40:15.501Z,68.37
2019-02-21T01:42:44.617Z,68.36
2019-02-21T01:45:13.747Z,68.66
2019-02-21T01:47:42.924Z,68.96
2019-02-21T01:50:12.062Z,68.90
2019-02-21T01:52:41.219Z,68.53
2019-02-21T01:55:10.401Z,69.37
2019-02-21T01:57:39.542Z,69.08
2019-02-21T02:00:09.666Z,69.08
2019-02-21T02:02:38.838Z,69.33
2019-02-21T02:05:08.269Z,69.15
2019-02-21T02:07:38.330Z,69.07
2019-02-21T02:10:08.486Z,68.71
2019-02-21T02:12:37.637Z,68.39
2019-02-21T02:15:07.079Z,68.39
2019-02-21T02:17:36.298Z,68.39
2019-02-21T02:20:05.735Z,68.68
2019-02-21T02:22:34.884Z,68.89
2019-02-21T02:25:04.023Z,68.95
2019-02-21T02:27:33.172Z,69.01
2019-02-21T02:30:02.325Z,68.76
2019-02-21T02:32:31.479Z,68.88
2019-02-21T02:35:00.639Z,69.16
2019-02-21T02:37:29.784Z,69.67
2019-02-21T02:39:58.923Z,69.61
2019-02-21T02:42:28.086Z,69.27
2019-02-21T02:44:57.207Z,68.98
2019-02-21T02:47:26.336Z,68.79
2019-02-21T02:49:55.471Z,68.65
2019-02-21T02:52:24.646Z,68.23
2019-02-21T02:54:53.882Z,68.24
2019-02-21T02:57:23.051Z,68.15
2019-02-21T02:59:52.174Z,68.07
2019-02-21T03:02:21.334Z,67.91
2019-02-21T03:04:50.534Z,68.12
2019-02-21T03:07:19.806Z,67.99
2019-02-21T03:09:48.879Z,67.83
2019-02-21T03:12:18.014Z,67.67
2019-02-21T03:14:47.158Z,67.48
2019-02-21T03:17:16.272Z,67.48
2019-02-21T03:19:45.437Z,67.43
2019-02-21T03:22:14.587Z,67.46
2019-02-21T03:24:46.757Z,67.41
2019-02-21T03:27:15.875Z,67.32
2019-02-21T03:29:45.009Z,67.34
2019-02-21T03:32:14.137Z,67.63
2019-02-21T03:34:43.294Z,67.71
2019-02-21T03:37:12.470Z,67.64
2019-02-21T03:39:41.630Z,67.80
2019-02-21T03:42:10.760Z,67.93
2019-02-21T03:44:39.941Z,67.90
2019-02-21T03:47:09.108Z,68.00
2019-02-21T03:49:38.240Z,67.77
2019-02-21T03:52:07.361Z,67.97
2019-02-21T03:54:36.644Z,68.00
2019-02-21T03:57:05.902Z,68.17
2019-02-21T03:59:35.053Z,68.45
2019-02-21T04:02:05.621Z,68.61
2019-02-21T04:04:35.237Z,68.74
2019-02-21T04:07:04.410Z,68.71
2019-02-21T04:09:33.649Z,68.43
2019-02-21T04:12:02.806Z,68.32
2019-02-21T04:14:32.010Z,68.60
2019-02-21T04:17:01.136Z,68.71
2019-02-21T04:19:30.343Z,68.63
2019-02-21T04:21:59.458Z,68.92
2019-02-21T04:24:28.650Z,69.11
2019-02-21T04:26:57.791Z,69.36
2019-02-21T04:29:26.961Z,69.45
2019-02-21T04:31:56.086Z,69.67
2019-02-21T04:34:25.261Z,69.72
2019-02-21T04:36:54.410Z,69.84
2019-02-21T04:39:23.535Z,70.37
2019-02-21T04:41:52.691Z,69.68
2019-02-21T04:44:21.844Z,69.61
2019-02-21T04:46:50.978Z,69.86
2019-02-21T04:49:20.163Z,69.87
2019-02-21T04:51:49.337Z,69.86
2019-02-21T04:54:18.483Z,69.70
2019-02-21T04:56:47.651Z,69.20
2019-02-21T04:59:16.791Z,69.26
2019-02-21T05:01:45.957Z,69.56
2019-02-21T05:04:15.131Z,69.71
2019-02-21T05:06:44.285Z,69.42
2019-02-21T05:09:13.438Z,69.29
2019-02-21T05:11:42.575Z,69.52
2019-02-21T05:14:11.749Z,69.62
2019-02-21T05:16:40.860Z,69.62
2019-02-21T05:19:10.007Z,69.56
2019-02-21T05:21:39.155Z,69.46
2019-02-21T05:24:08.296Z,69.50
2019-02-21T05:29:26.602Z,69.96
2019-02-21T05:32:23.509Z,70.17
2019-02-21T05:35:20.900Z,70.06
2019-02-21T05:38:12.225Z,69.89
2019-02-21T05:40:51.438Z,69.85
2019-02-21T05:43:37.266Z,69.94
2019-02-21T05:46:19.054Z,70.13
2019-02-21T05:48:57.657Z,70.16
2019-02-21T05:51:51.636Z,70.13
2019-02-21T05:54:31.902Z,69.92
2019-02-21T05:57:09.329Z,69.79
2019-02-21T06:00:09.524Z,69.66
2019-02-21T06:02:53.270Z,69.66
2019-02-21T06:05:43.362Z,69.50
2019-02-21T06:08:26.413Z,69.49
2019-02-21T06:11:08.463Z,69.49
2019-02-21T06:13:45.756Z,69.51
2019-02-21T06:16:49.213Z,68.97
2019-02-21T06:19:40.065Z,69.09
2019-02-21T06:22:26.803Z,69.25
2019-02-21T06:25:00.699Z,69.48
2019-02-21T06:27:39.864Z,69.66
2019-02-21T06:30:13.644Z,69.49
2019-02-21T06:32:42.796Z,69.61
2019-02-21T06:35:12.008Z,69.74
2019-02-21T06:37:41.140Z,70.05
2019-02-21T06:40:10.400Z,69.86
2019-02-21T06:42:39.575Z,69.16
2019-02-21T06:45:08.732Z,69.53
2019-02-21T06:47:37.900Z,69.56
2019-02-21T06:50:07.145Z,69.52
2019-02-21T06:52:36.428Z,69.17
2019-02-21T06:55:05.658Z,69.32
2019-02-21T06:57:34.876Z,69.07
2019-02-21T07:00:04.704Z,69.44
2019-02-21T07:02:33.869Z,69.59
2019-02-21T07:05:03.076Z,69.53
2019-02-21T07:07:32.237Z,69.20
2019-02-21T07:10:01.365Z,69.15
2019-02-21T07:12:30.487Z,69.35
2019-02-21T07:14:59.657Z,69.30
2019-02-21T07:17:28.781Z,69.31
2019-02-21T07:19:57.961Z,69.46
2019-02-21T07:22:27.112Z,68.68
2019-02-21T07:25:00.618Z,69.08
2019-02-21T07:27:29.758Z,69.21
2019-02-21T07:29:58.897Z,69.13
2019-02-21T07:32:28.103Z,68.78
2019-02-21T07:34:57.241Z,68.58
2019-02-21T07:37:26.442Z,68.26
2019-02-21T07:39:55.604Z,68.09
2019-02-21T07:42:24.740Z,67.98
2019-02-21T07:44:54.101Z,67.82
2019-02-21T07:47:24.278Z,67.47
2019-02-21T07:49:53.439Z,67.24
2019-02-21T07:52:22.576Z,66.91
2019-02-21T07:55:01.331Z,66.45
2019-02-21T07:57:22.650Z,65.95
2019-02-21T07:59:51.812Z,65.94
2019-02-21T08:02:21.154Z,65.12
2019-02-21T08:04:50.270Z,64.34
2019-02-21T08:07:19.422Z,61.89
2019-02-21T08:09:48.571Z,60.96
2019-02-21T08:12:17.769Z,58.58
2019-02-21T08:14:46.924Z,55.78
2019-02-21T08:17:16.425Z,54.23
2019-02-21T08:19:45.651Z,53.67
2019-02-21T08:22:14.816Z,53.16
2019-02-21T08:24:43.994Z,51.65
2019-02-21T08:27:13.157Z,50.10
2019-02-21T08:29:42.299Z,49.45
2019-02-21T08:32:13.867Z,51.46
2019-02-21T08:34:48.180Z,53.18
2019-02-21T08:37:16.950Z,54.55
2019-02-21T08:39:46.138Z,55.51
2019-02-21T08:42:15.330Z,57.02
2019-02-21T08:44:44.443Z,57.97
2019-02-21T08:47:13.683Z,58.25
2019-02-21T08:49:42.852Z,58.49
2019-02-21T08:52:12.010Z,56.04
2019-02-21T08:54:41.154Z,53.86
2019-02-21T08:57:10.345Z,50.27
2019-02-21T08:59:42.187Z,47.60
2019-02-21T09:02:10.398Z,46.95
2019-02-21T09:04:39.527Z,47.17
2019-02-21T09:07:08.919Z,49.02
2019-02-21T09:09:38.124Z,50.28
2019-02-21T09:12:07.320Z,50.15
2019-02-21T09:14:36.767Z,47.70
2019-02-21T09:17:05.955Z,46.66
2019-02-21T09:19:36.823Z,46.77
2019-02-21T09:22:06.150Z,48.72
2019-02-21T09:24:41.287Z,50.75
2019-02-21T09:27:06.249Z,52.12
2019-02-21T09:29:35.361Z,53.31
2019-02-21T09:32:06.873Z,54.47
2019-02-21T09:34:35.386Z,55.36
2019-02-21T09:37:05.436Z,55.56
2019-02-21T09:39:34.744Z,55.00
2019-02-21T09:42:03.876Z,55.26
2019-02-21T09:44:35.748Z,55.17
2019-02-21T09:47:03.944Z,55.74
2019-02-21T09:49:33.082Z,56.16
2019-02-21T09:52:02.240Z,56.38
2019-02-21T09:54:31.411Z,56.73
2019-02-21T09:57:00.540Z,56.82
2019-02-21T09:59:29.714Z,56.93
2019-02-21T10:01:58.850Z,56.62
2019-02-21T10:04:32.127Z,56.34
2019-02-21T10:06:58.993Z,55.90
2019-02-21T10:09:28.124Z,55.31
2019-02-21T10:11:59.091Z,54.18
2019-02-21T10:14:28.400Z,50.98
2019-02-21T10:16:57.600Z,47.58
2019-02-21T10:19:26.792Z,44.90
2019-02-21T10:21:55.945Z,42.30
2019-02-21T10:24:25.172Z,41.16
2019-02-21T10:26:54.307Z,39.88
2019-02-21T10:29:23.798Z,40.66
2019-02-21T10:31:52.987Z,40.59
2019-02-21T10:34:22.251Z,40.42
2019-02-21T10:36:51.357Z,41.32
2019-02-21T10:39:20.544Z,42.34
2019-02-21T10:41:49.727Z,43.02
2019-02-21T10:44:18.879Z,44.15
2019-02-21T10:46:48.054Z,44.78
2019-02-21T10:49:17.248Z,46.39
2019-02-21T10:51:46.421Z,47.72
2019-02-21T10:54:15.600Z,48.46
2019-02-21T10:56:44.744Z,49.12
2019-02-21T10:59:13.940Z,50.59
2019-02-21T11:01:43.085Z,51.57
2019-02-21T11:04:12.354Z,51.68
2019-02-21T11:06:41.506Z,52.03
2019-02-21T11:09:19.732Z,52.32
2019-02-21T11:11:48.921Z,52.43
2019-02-21T11:14:18.116Z,53.18
2019-02-21T11:16:47.295Z,53.51
2019-02-21T11:19:16.478Z,53.83
2019-02-21T11:21:45.635Z,54.92
2019-02-21T11:24:14.905Z,55.58
2019-02-21T11:26:44.078Z,55.70
2019-02-21T11:29:13.238Z,56.00
2019-02-21T11:31:42.456Z,56.67
2019-02-21T11:34:11.585Z,56.55
2019-02-21T11:36:40.764Z,56.74
2019-02-21T11:39:09.951Z,57.63
2019-02-21T11:41:39.115Z,57.36
2019-02-21T11:44:08.311Z,57.79
2019-02-21T11:46:37.478Z,57.58
2019-02-21T11:49:06.767Z,57.93
2019-02-21T11:51:35.896Z,57.22
2019-02-21T11:54:05.115Z,57.47
2019-02-21T11:56:34.434Z,57.93
2019-02-21T11:59:03.614Z,58.20
2019-02-21T12:01:32.779Z,57.89
2019-02-21T12:04:02.069Z,58.17
2019-02-21T12:06:31.166Z,58.54
2019-02-21T12:09:00.368Z,58.74
2019-02-21T12:11:29.686Z,58.27
2019-02-21T12:13:58.824Z,58.06
2019-02-21T12:16:28.014Z,58.08
2019-02-21T12:18:57.207Z,57.82
2019-02-21T12:21:26.428Z,57.79
2019-02-21T12:23:55.658Z,57.55
2019-02-21T12:26:24.833Z,57.81
2019-02-21T12:28:54.015Z,56.90
2019-02-21T12:31:23.145Z,57.21
2019-02-21T12:33:52.335Z,57.09
2019-02-21T12:36:21.623Z,56.55
2019-02-21T12:38:50.866Z,56.38
2019-02-21T12:41:20.020Z,56.43
2019-02-21T12:43:49.515Z,56.45
2019-02-21T12:46:18.697Z,56.42
2019-02-21T12:48:47.887Z,56.29
2019-02-21T12:51:17.074Z,56.29
2019-02-21T12:53:46.259Z,56.12
2019-02-21T12:56:15.399Z,56.65
2019-02-21T12:58:45.349Z,57.10
2019-02-21T13:01:14.682Z,57.04
2019-02-21T13:03:43.997Z,57.18
2019-02-21T13:06:13.184Z,57.38
2019-02-21T13:08:42.340Z,57.26
2019-02-21T13:11:11.537Z,56.98
2019-02-21T13:13:40.688Z,56.74
2019-02-21T13:16:09.833Z,57.16
2019-02-21T13:18:39.024Z,57.44
2019-02-21T13:21:08.246Z,57.19
2019-02-21T13:23:37.433Z,57.57
2019-02-21T13:26:09.532Z,57.79
2019-02-21T13:28:38.716Z,57.41
2019-02-21T13:31:07.870Z,57.61
2019-02-21T13:33:37.166Z,57.68
2019-02-21T13:36:06.625Z,57.52
2019-02-21T13:38:35.818Z,57.37
2019-02-21T13:41:04.955Z,57.62
2019-02-21T13:43:34.156Z,57.73
2019-02-21T13:46:03.393Z,57.62
2019-02-21T13:48:32.555Z,57.46
2019-02-21T13:51:01.751Z,57.73
2019-02-21T13:53:30.911Z,57.40
2019-02-21T13:56:00.094Z,57.21
2019-02-21T13:58:29.251Z,57.04
2019-02-21T14:00:58.413Z,56.83
2019-02-21T14:03:27.561Z,56.94
2019-02-21T14:06:03.676Z,55.75
2019-02-21T14:08:27.694Z,55.78
2019-02-21T14:10:56.950Z,55.92
2019-02-21T14:13:26.130Z,56.16
2019-02-21T14:15:55.337Z,56.28
2019-02-21T14:18:24.649Z,56.09
2019-02-21T14:20:53.756Z,56.69
2019-02-21T14:23:22.918Z,57.14
2019-02-21T14:25:52.136Z,57.21
2019-02-21T14:28:21.285Z,57.21
2019-02-21T14:30:50.492Z,56.99
2019-02-21T14:33:19.629Z,56.99
2019-02-21T14:35:48.864Z,57.10
2019-02-21T14:38:27.428Z,56.67
2019-02-21T14:40:48.902Z,57.16
2019-02-21T14:43:18.035Z,57.24
2019-02-21T14:45:47.226Z,57.15
2019-02-21T14:48:16.372Z,57.06
2019-02-21T14:50:45.574Z,57.07
2019-02-21T14:53:14.765Z,57.04
2019-02-21T14:55:43.920Z,56.99
2019-02-21T14:58:13.129Z,57.16
2019-02-21T15:00:42.386Z,57.00
2019-02-21T15:03:21.457Z,57.06
2019-02-21T15:05:42.547Z,57.32
2019-02-21T15:08:11.723Z,57.21
2019-02-21T15:10:40.855Z,57.63
2019-02-21T15:13:10.131Z,57.58
2019-02-21T15:15:39.291Z,57.78
2019-02-21T15:18:11.227Z,57.83
2019-02-21T15:20:39.417Z,57.76
2019-02-21T15:23:08.742Z,58.07
2019-02-21T15:25:38.019Z,58.36
2019-02-21T15:28:07.209Z,58.83
2019-02-21T15:30:36.458Z,58.99
2019-02-21T15:33:05.620Z,59.89
2019-02-21T15:35:34.838Z,59.88
2019-02-21T15:38:04.011Z,60.43
2019-02-21T15:40:33.194Z,60.69
2019-02-21T15:43:05.136Z,61.39
2019-02-21T15:45:33.256Z,61.24
2019-02-21T15:48:02.461Z,60.78
2019-02-21T15:50:31.794Z,60.41
2019-02-21T15:53:01.010Z,60.56
2019-02-21T15:55:32.151Z,60.78
2019-02-21T15:58:04.411Z,60.82
2019-02-21T16:00:31.935Z,60.84
2019-02-21T16:03:01.147Z,60.65
2019-02-21T16:05:30.286Z,60.81
2019-02-21T16:07:59.605Z,60.97
2019-02-21T16:10:28.827Z,61.13
2019-02-21T16:12:58.853Z,61.17
2019-02-21T16:15:28.541Z,61.26
2019-02-21T16:17:57.736Z,61.32
2019-02-21T16:20:26.999Z,61.42
2019-02-21T16:22:56.138Z,61.85
2019-02-21T16:25:26.220Z,62.24
2019-02-21T16:27:55.850Z,62.40
2019-02-21T16:30:25.144Z,62.32
2019-02-21T16:32:54.382Z,62.41
2019-02-21T16:35:27.196Z,62.45
2019-02-21T16:37:55.565Z,62.56
2019-02-21T16:40:26.199Z,62.65
2019-02-21T16:42:55.427Z,62.76
2019-02-21T16:45:24.591Z,62.74
2019-02-21T16:47:53.754Z,62.53
2019-02-21T16:50:29.634Z,62.45
2019-02-21T16:52:53.868Z,62.39
2019-02-21T16:55:23.063Z,62.45
2019-02-21T16:57:52.259Z,62.44
2019-02-21T17:00:23.927Z,62.38
2019-02-21T17:02:52.350Z,62.36
2019-02-21T17:05:21.517Z,62.37
2019-02-21T17:07:50.906Z,62.29
2019-02-21T17:10:20.191Z,62.17
2019-02-21T17:12:49.382Z,62.23
2019-02-21T17:15:18.620Z,62.18
2019-02-21T17:17:48.218Z,62.08
2019-02-21T17:20:17.753Z,62.10
2019-02-21T17:22:47.052Z,62.19
2019-02-21T17:25:16.275Z,62.23
2019-02-21T17:27:45.525Z,62.22
2019-02-21T17:30:16.378Z,62.37
2019-02-21T17:32:45.649Z,62.26
2019-02-21T17:35:15.145Z,62.37
2019-02-21T17:37:44.538Z,62.29
2019-02-21T17:40:16.540Z,62.20
2019-02-21T17:42:45.768Z,62.41
2019-02-21T17:45:15.176Z,62.28
2019-02-21T17:47:44.534Z,62.42
2019-02-21T17:50:14.791Z,62.44
2019-02-21T17:52:44.266Z,62.64
2019-02-21T17:55:14.125Z,62.57
2019-02-21T17:57:46.785Z,62.57
2019-02-21T18:00:20.034Z,62.67
2019-02-21T18:02:49.187Z,62.55
2019-02-21T18:05:18.402Z,62.58
2019-02-21T18:07:47.577Z,62.46
2019-02-21T18:10:16.820Z,62.44
2019-02-21T18:12:46.101Z,62.47
2019-02-21T18:15:15.479Z,62.80
2019-02-21T18:17:44.735Z,62.77
2019-02-21T18:20:14.148Z,62.96
2019-02-21T18:22:43.590Z,63.03
2019-02-21T18:25:16.022Z,63.19
2019-02-21T18:27:45.338Z,63.41
2019-02-21T18:30:15.726Z,63.62
2019-02-21T18:32:44.952Z,63.48
2019-02-21T18:35:14.520Z,63.65
2019-02-21T18:37:47.401Z,63.51
2019-02-21T18:40:17.776Z,63.60
2019-02-21T18:42:46.870Z,63.81
2019-02-21T18:45:16.215Z,63.76
2019-02-21T18:47:45.420Z,63.79
2019-02-21T18:50:14.705Z,63.91
2019-02-21T18:52:44.129Z,64.05
2019-02-21T18:55:13.790Z,64.08
2019-02-21T18:57:43.142Z,64.28
2019-02-21T19:00:13.976Z,64.28
2019-02-21T19:02:43.512Z,64.92
2019-02-21T19:05:12.726Z,65.66
2019-02-21T19:07:42.124Z,66.34
2019-02-21T19:10:13.049Z,66.28
2019-02-21T19:12:42.649Z,66.82
2019-02-21T19:15:12.353Z,67.93
2019-02-21T19:17:42.782Z,67.83
2019-02-21T19:20:12.837Z,67.44
2019-02-21T19:22:42.421Z,68.66
2019-02-21T19:25:11.888Z,68.48
2019-02-21T19:27:41.563Z,68.45
2019-02-21T19:30:15.081Z,68.95
2019-02-21T19:32:44.288Z,69.11
2019-02-21T19:35:13.795Z,69.16
2019-02-21T19:37:43.270Z,69.58
2019-02-21T19:40:12.734Z,70.47
2019-02-21T19:42:42.165Z,70.04
2019-02-21T19:45:11.885Z,70.70
2019-02-21T19:47:41.337Z,71.00
2019-02-21T19:50:10.843Z,70.81
2019-02-21T19:52:40.553Z,71.64
2019-02-21T19:55:09.931Z,72.07
2019-02-21T19:57:39.555Z,72.25
2019-02-21T20:00:12.260Z,72.09
2019-02-21T20:02:41.868Z,72.64
2019-02-21T20:05:11.218Z,72.32
2019-02-21T20:07:40.536Z,72.85
2019-02-21T20:10:09.962Z,72.87
2019-02-21T20:12:39.398Z,72.59
2019-02-21T20:15:09.122Z,73.50
2019-02-21T20:17:39.031Z,72.39
2019-02-21T20:20:09.677Z,72.70
2019-02-21T20:22:39.072Z,72.72
2019-02-21T20:25:08.555Z,72.63
2019-02-21T20:27:37.740Z,72.52
2019-02-21T20:30:08.420Z,73.12
2019-02-21T20:32:37.668Z,73.43
2019-02-21T20:35:07.182Z,72.91
2019-02-21T20:37:36.554Z,72.86
2019-02-21T20:40:06.707Z,74.01
2019-02-21T20:42:36.052Z,73.17
2019-02-21T20:45:26.166Z,73.14
2019-02-21T20:47:55.441Z,73.18
2019-02-21T20:50:24.698Z,73.33
2019-02-21T20:52:54.306Z,74.01
2019-02-21T20:55:23.627Z,73.69
2019-02-21T20:57:52.891Z,73.72
2019-02-21T21:00:23.991Z,73.37
2019-02-21T21:02:53.166Z,73.08
2019-02-21T21:05:22.773Z,73.42
2019-02-21T21:07:52.428Z,73.41
2019-02-21T21:10:21.996Z,73.57
2019-02-21T21:12:51.453Z,73.55
2019-02-21T21:15:20.698Z,73.74
2019-02-21T21:17:50.106Z,73.74
2019-02-21T21:20:19.363Z,74.25
2019-02-21T21:22:48.570Z,74.32
2019-02-21T21:25:17.920Z,74.85
2019-02-21T21:27:47.120Z,75.28
2019-02-21T21:30:16.724Z,74.66
2019-02-21T21:32:46.002Z,74.45
2019-02-21T21:35:15.391Z,74.82
2019-02-21T21:37:44.813Z,74.75
2019-02-21T21:40:14.776Z,74.69
2019-02-21T21:42:43.923Z,75.16
2019-02-21T21:45:15.186Z,75.38
2019-02-21T21:47:44.479Z,75.27
2019-02-21T21:50:15.115Z,75.33
2019-02-21T21:52:44.315Z,75.46
2019-02-21T21:55:13.496Z,75.15
2019-02-21T21:57:42.797Z,75.47
2019-02-21T22:00:17.778Z,75.50
2019-02-21T22:02:46.143Z,75.21
2019-02-21T22:05:15.352Z,74.84
2019-02-21T22:07:44.630Z,75.11
2019-02-21T22:10:14.121Z,75.11
2019-02-21T22:12:43.288Z,76.21
2019-02-21T22:15:12.854Z,75.71
2019-02-21T22:17:42.319Z,75.43
2019-02-21T22:20:11.512Z,75.15
2019-02-21T22:22:40.780Z,75.08
2019-02-21T22:25:10.988Z,75.73
2019-02-21T22:27:40.187Z,76.13
2019-02-21T22:30:11.331Z,76.18
2019-02-21T22:32:40.481Z,76.74
2019-02-21T22:35:09.631Z,76.80
2019-02-21T22:37:38.785Z,76.75
2019-02-21T22:40:09.505Z,75.88
2019-02-21T22:42:38.687Z,75.76
2019-02-21T22:45:08.294Z,76.20
2019-02-21T22:47:37.459Z,76.55
2019-02-21T22:50:08.693Z,75.65
2019-02-21T22:52:37.855Z,75.80
2019-02-21T22:55:09.977Z,75.83
2019-02-21T22:57:38.123Z,76.15
2019-02-21T23:01:07.224Z,76.05
2019-02-21T23:03:54.811Z,76.39
2019-02-21T23:06:44.808Z,75.74
2019-02-21T23:09:26.951Z,76.24
2019-02-21T23:11:50.390Z,76.06
2019-02-21T23:14:19.703Z,76.35
2019-02-21T23:16:48.824Z,75.89
2019-02-21T23:19:18.024Z,76.31
2019-02-21T23:21:47.221Z,76.83
2019-02-21T23:24:16.414Z,76.35
2019-02-21T23:26:45.614Z,76.48
2019-02-21T23:29:14.906Z,76.31
2019-02-21T23:31:44.093Z,75.89
2019-02-21T23:34:22.774Z,75.97
2019-02-21T23:36:52.862Z,75.97
2019-02-21T23:39:22.080Z,76.00
2019-02-21T23:41:51.244Z,76.07
2019-02-21T23:44:20.461Z,76.19
2019-02-21T23:46:49.653Z,76.58
2019-02-21T23:49:18.894Z,75.95
2019-02-21T23:51:48.866Z,75.79
2019-02-21T23:54:18.136Z,76.04
2019-02-21T23:56:47.341Z,76.27
2019-02-21T23:59:16.513Z,76.34
